sensor_id;sensor_type;location;lat;lon;timestamp;pressure;altitude;pressure_sealevel;temperature;humidity
42385;BME280;28042;43.986;22.860;2023-04-01T00:01:19;100086.56;;;11.21;88.44
42385;BME280;28042;43.986;22.860;2023-04-01T00:03:45;100088.22;;;11.22;88.77
42385;BME280;28042;43.986;22.860;2023-04-01T00:06:13;100022.91;;;10.82;91.04
42385;BME280;28042;43.986;22.860;2023-04-01T00:08:39;100019.97;;;10.77;92.06
42385;BME280;28042;43.986;22.860;2023-04-01T00:11:05;100046.75;;;10.93;92.71
42385;BME280;28042;43.986;22.860;2023-04-01T00:13:30;100014.31;;;10.79;94.06
42385;BME280;28042;43.986;22.860;2023-04-01T00:15:56;100031.66;;;10.97;93.80
42385;BME280;28042;43.986;22.860;2023-04-01T00:18:22;100052.34;;;11.12;93.93
42385;BME280;28042;43.986;22.860;2023-04-01T00:20:49;99968.56;;;10.74;94.40
42385;BME280;28042;43.986;22.860;2023-04-01T00:23:15;100010.41;;;11.06;93.29
42385;BME280;28042;43.986;22.860;2023-04-01T00:25:41;100003.31;;;10.98;92.64
42385;BME280;28042;43.986;22.860;2023-04-01T00:28:07;100000.34;;;11.00;93.41
42385;BME280;28042;43.986;22.860;2023-04-01T00:30:33;99982.53;;;10.97;94.84
42385;BME280;28042;43.986;22.860;2023-04-01T00:32:58;100045.53;;;11.34;96.04
42385;BME280;28042;43.986;22.860;2023-04-01T00:35:23;100041.75;;;11.28;96.97
42385;BME280;28042;43.986;22.860;2023-04-01T00:37:49;99983.63;;;10.90;97.78
42385;BME280;28042;43.986;22.860;2023-04-01T00:40:28;99977.50;;;10.94;97.97
42385;BME280;28042;43.986;22.860;2023-04-01T00:42:54;99988.00;;;10.97;98.43
42385;BME280;28042;43.986;22.860;2023-04-01T00:45:34;100036.09;;;11.30;99.97
42385;BME280;28042;43.986;22.860;2023-04-01T00:48:04;99993.59;;;11.02;100.00
42385;BME280;28042;43.986;22.860;2023-04-01T00:50:32;100016.00;;;11.18;100.00
42385;BME280;28042;43.986;22.860;2023-04-01T00:53:01;99980.41;;;10.99;100.00
42385;BME280;28042;43.986;22.860;2023-04-01T00:55:30;100035.72;;;11.20;100.00
42385;BME280;28042;43.986;22.860;2023-04-01T00:57:58;100037.44;;;11.14;100.00
42385;BME280;28042;43.986;22.860;2023-04-01T01:00:25;100035.59;;;11.01;98.99
42385;BME280;28042;43.986;22.860;2023-04-01T01:02:51;99979.31;;;10.69;99.43
42385;BME280;28042;43.986;22.860;2023-04-01T01:05:19;100033.31;;;10.98;99.61
42385;BME280;28042;43.986;22.860;2023-04-01T01:10:35;100036.25;;;11.03;100.00
42385;BME280;28042;43.986;22.860;2023-04-01T01:16:05;100022.28;;;10.80;100.00
42385;BME280;28042;43.986;22.860;2023-04-01T01:21:27;100012.00;;;10.75;100.00
42385;BME280;28042;43.986;22.860;2023-04-01T01:24:12;100018.72;;;10.73;100.00
42385;BME280;28042;43.986;22.860;2023-04-01T01:27:00;100000.31;;;10.62;100.00
42385;BME280;28042;43.986;22.860;2023-04-01T01:29:54;99995.72;;;10.56;100.00
42385;BME280;28042;43.986;22.860;2023-04-01T01:32:42;100007.00;;;10.66;100.00
42385;BME280;28042;43.986;22.860;2023-04-01T01:37:56;99929.97;;;10.19;100.00
42385;BME280;28042;43.986;22.860;2023-04-01T01:40:25;99925.34;;;10.19;100.00
42385;BME280;28042;43.986;22.860;2023-04-01T01:42:54;99930.56;;;10.21;100.00
42385;BME280;28042;43.986;22.860;2023-04-01T01:45:23;99959.69;;;10.40;100.00
42385;BME280;28042;43.986;22.860;2023-04-01T01:47:50;99960.94;;;10.44;100.00
42385;BME280;28042;43.986;22.860;2023-04-01T01:50:17;99972.66;;;10.52;100.00
42385;BME280;28042;43.986;22.860;2023-04-01T01:52:43;99967.22;;;10.52;100.00
42385;BME280;28042;43.986;22.860;2023-04-01T01:55:37;99970.13;;;10.57;100.00
42385;BME280;28042;43.986;22.860;2023-04-01T01:58:32;99961.31;;;10.61;100.00
42385;BME280;28042;43.986;22.860;2023-04-01T02:01:07;99954.59;;;10.57;100.00
42385;BME280;28042;43.986;22.860;2023-04-01T02:03:36;99925.91;;;10.41;100.00
42385;BME280;28042;43.986;22.860;2023-04-01T02:06:04;99891.97;;;10.37;100.00
42385;BME280;28042;43.986;22.860;2023-04-01T02:08:38;99955.28;;;10.84;100.00
42385;BME280;28042;43.986;22.860;2023-04-01T02:11:10;99954.03;;;10.87;100.00
42385;BME280;28042;43.986;22.860;2023-04-01T02:13:45;99967.22;;;10.96;100.00
42385;BME280;28042;43.986;22.860;2023-04-01T02:16:20;99963.16;;;11.06;100.00
42385;BME280;28042;43.986;22.860;2023-04-01T02:18:50;99953.91;;;11.07;100.00
42385;BME280;28042;43.986;22.860;2023-04-01T02:21:20;99971.31;;;11.12;100.00
42385;BME280;28042;43.986;22.860;2023-04-01T02:23:46;99970.91;;;11.09;100.00
42385;BME280;28042;43.986;22.860;2023-04-01T02:26:12;99977.44;;;11.08;100.00
42385;BME280;28042;43.986;22.860;2023-04-01T02:28:40;99959.84;;;11.03;100.00
42385;BME280;28042;43.986;22.860;2023-04-01T02:31:10;99910.84;;;10.77;100.00
42385;BME280;28042;43.986;22.860;2023-04-01T02:33:38;99925.19;;;10.66;100.00
42385;BME280;28042;43.986;22.860;2023-04-01T02:36:04;99969.94;;;10.96;100.00
42385;BME280;28042;43.986;22.860;2023-04-01T02:38:30;99922.69;;;10.64;100.00
42385;BME280;28042;43.986;22.860;2023-04-01T02:41:00;99963.66;;;10.96;100.00
42385;BME280;28042;43.986;22.860;2023-04-01T02:43:28;99973.19;;;11.12;100.00
42385;BME280;28042;43.986;22.860;2023-04-01T02:45:53;99957.25;;;11.09;100.00
42385;BME280;28042;43.986;22.860;2023-04-01T02:48:19;99977.75;;;11.24;100.00
42385;BME280;28042;43.986;22.860;2023-04-01T02:50:44;99917.09;;;10.84;100.00
42385;BME280;28042;43.986;22.860;2023-04-01T02:53:10;99920.34;;;10.68;100.00
42385;BME280;28042;43.986;22.860;2023-04-01T02:55:35;99923.03;;;10.74;100.00
42385;BME280;28042;43.986;22.860;2023-04-01T02:58:01;99943.31;;;10.85;100.00
42385;BME280;28042;43.986;22.860;2023-04-01T03:00:27;99965.28;;;11.03;100.00
42385;BME280;28042;43.986;22.860;2023-04-01T03:02:52;99947.75;;;10.86;100.00
42385;BME280;28042;43.986;22.860;2023-04-01T03:05:18;99968.41;;;11.07;100.00
42385;BME280;28042;43.986;22.860;2023-04-01T03:07:44;99894.81;;;10.56;100.00
42385;BME280;28042;43.986;22.860;2023-04-01T03:10:10;99949.34;;;11.00;100.00
42385;BME280;28042;43.986;22.860;2023-04-01T03:12:36;99904.13;;;10.80;100.00
42385;BME280;28042;43.986;22.860;2023-04-01T03:15:02;99936.03;;;11.11;100.00
42385;BME280;28042;43.986;22.860;2023-04-01T03:17:27;99893.59;;;10.83;100.00
42385;BME280;28042;43.986;22.860;2023-04-01T03:19:53;99911.13;;;11.00;100.00
42385;BME280;28042;43.986;22.860;2023-04-01T03:22:19;99890.16;;;10.94;100.00
42385;BME280;28042;43.986;22.860;2023-04-01T03:24:47;99910.59;;;11.17;100.00
42385;BME280;28042;43.986;22.860;2023-04-01T03:27:12;99934.84;;;11.31;100.00
42385;BME280;28042;43.986;22.860;2023-04-01T03:29:38;99927.31;;;11.27;100.00
42385;BME280;28042;43.986;22.860;2023-04-01T03:32:04;99867.84;;;10.79;100.00
42385;BME280;28042;43.986;22.860;2023-04-01T03:34:29;99940.00;;;11.15;100.00
42385;BME280;28042;43.986;22.860;2023-04-01T03:36:55;99937.09;;;11.10;100.00
42385;BME280;28042;43.986;22.860;2023-04-01T03:39:20;99938.75;;;11.11;100.00
42385;BME280;28042;43.986;22.860;2023-04-01T03:41:46;99876.81;;;10.86;100.00
42385;BME280;28042;43.986;22.860;2023-04-01T03:44:12;99929.91;;;11.22;100.00
42385;BME280;28042;43.986;22.860;2023-04-01T03:46:37;99932.75;;;11.33;99.31
42385;BME280;28042;43.986;22.860;2023-04-01T03:49:06;99917.53;;;11.44;98.56
42385;BME280;28042;43.986;22.860;2023-04-01T03:51:40;99882.69;;;11.15;99.25
42385;BME280;28042;43.986;22.860;2023-04-01T03:54:06;99863.84;;;11.07;100.00
42385;BME280;28042;43.986;22.860;2023-04-01T03:56:32;99927.50;;;11.32;100.00
42385;BME280;28042;43.986;22.860;2023-04-01T03:58:58;99921.84;;;11.27;100.00
42385;BME280;28042;43.986;22.860;2023-04-01T04:01:23;99860.00;;;10.89;99.44
42385;BME280;28042;43.986;22.860;2023-04-01T04:03:50;99912.44;;;11.23;99.88
42385;BME280;28042;43.986;22.860;2023-04-01T04:06:17;99892.44;;;11.29;100.00
42385;BME280;28042;43.986;22.860;2023-04-01T04:08:43;99877.84;;;11.17;100.00
42385;BME280;28042;43.986;22.860;2023-04-01T04:11:09;99924.66;;;11.45;100.00
42385;BME280;28042;43.986;22.860;2023-04-01T04:13:35;99929.22;;;11.51;100.00
42385;BME280;28042;43.986;22.860;2023-04-01T04:16:02;99895.66;;;11.44;100.00
42385;BME280;28042;43.986;22.860;2023-04-01T04:18:28;99924.56;;;11.58;100.00
42385;BME280;28042;43.986;22.860;2023-04-01T04:20:53;99906.91;;;11.54;100.00
42385;BME280;28042;43.986;22.860;2023-04-01T04:23:19;99904.94;;;11.43;100.00
42385;BME280;28042;43.986;22.860;2023-04-01T04:25:59;99907.84;;;11.48;100.00
42385;BME280;28042;43.986;22.860;2023-04-01T04:28:26;99909.09;;;11.46;100.00
42385;BME280;28042;43.986;22.860;2023-04-01T04:30:52;99909.59;;;11.36;100.00
42385;BME280;28042;43.986;22.860;2023-04-01T04:33:17;99858.53;;;11.12;100.00
42385;BME280;28042;43.986;22.860;2023-04-01T04:35:43;99914.09;;;11.55;100.00
42385;BME280;28042;43.986;22.860;2023-04-01T04:38:09;99870.53;;;11.36;100.00
42385;BME280;28042;43.986;22.860;2023-04-01T04:40:36;99846.19;;;11.34;99.36
42385;BME280;28042;43.986;22.860;2023-04-01T04:43:02;99881.69;;;11.59;99.67
42385;BME280;28042;43.986;22.860;2023-04-01T04:45:28;99829.03;;;11.27;98.18
42385;BME280;28042;43.986;22.860;2023-04-01T04:47:54;99852.22;;;11.43;97.91
42385;BME280;28042;43.986;22.860;2023-04-01T04:50:19;99826.78;;;11.42;97.61
42385;BME280;28042;43.986;22.860;2023-04-01T04:52:45;99834.25;;;11.53;98.00
42385;BME280;28042;43.986;22.860;2023-04-01T04:55:10;99878.00;;;11.90;99.10
42385;BME280;28042;43.986;22.860;2023-04-01T04:57:36;99875.91;;;11.92;99.67
42385;BME280;28042;43.986;22.860;2023-04-01T05:00:02;99867.03;;;11.72;100.00
42385;BME280;28042;43.986;22.860;2023-04-01T05:02:27;99839.78;;;11.47;100.00
42385;BME280;28042;43.986;22.860;2023-04-01T05:04:53;99870.97;;;11.82;100.00
42385;BME280;28042;43.986;22.860;2023-04-01T05:07:18;99865.88;;;11.86;100.00
42385;BME280;28042;43.986;22.860;2023-04-01T05:09:44;99874.97;;;11.98;100.00
42385;BME280;28042;43.986;22.860;2023-04-01T05:12:10;99830.69;;;11.71;100.00
42385;BME280;28042;43.986;22.860;2023-04-01T05:14:38;99863.03;;;11.99;100.00
42385;BME280;28042;43.986;22.860;2023-04-01T05:17:04;99865.50;;;11.82;100.00
42385;BME280;28042;43.986;22.860;2023-04-01T05:19:29;99887.69;;;11.93;100.00
42385;BME280;28042;43.986;22.860;2023-04-01T05:21:55;99842.16;;;11.61;100.00
42385;BME280;28042;43.986;22.860;2023-04-01T05:24:20;99893.59;;;11.89;100.00
42385;BME280;28042;43.986;22.860;2023-04-01T05:26:46;99895.34;;;11.84;100.00
42385;BME280;28042;43.986;22.860;2023-04-01T05:29:11;99868.41;;;11.63;100.00
42385;BME280;28042;43.986;22.860;2023-04-01T05:31:37;99880.84;;;11.58;100.00
42385;BME280;28042;43.986;22.860;2023-04-01T05:34:02;99865.91;;;11.36;100.00
42385;BME280;28042;43.986;22.860;2023-04-01T05:36:28;99830.38;;;11.18;100.00
42385;BME280;28042;43.986;22.860;2023-04-01T05:38:56;99863.81;;;11.38;100.00
42385;BME280;28042;43.986;22.860;2023-04-01T05:41:22;99863.72;;;11.45;100.00
42385;BME280;28042;43.986;22.860;2023-04-01T05:43:47;99837.81;;;11.29;100.00
42385;BME280;28042;43.986;22.860;2023-04-01T05:46:13;99877.72;;;11.55;100.00
42385;BME280;28042;43.986;22.860;2023-04-01T05:48:38;99883.56;;;11.58;100.00
42385;BME280;28042;43.986;22.860;2023-04-01T05:51:04;99880.84;;;11.58;100.00
42385;BME280;28042;43.986;22.860;2023-04-01T05:53:30;99891.31;;;11.61;100.00
42385;BME280;28042;43.986;22.860;2023-04-01T05:55:56;99843.28;;;11.29;100.00
42385;BME280;28042;43.986;22.860;2023-04-01T05:58:21;99902.19;;;11.68;100.00
42385;BME280;28042;43.986;22.860;2023-04-01T06:00:47;99900.06;;;11.70;100.00
42385;BME280;28042;43.986;22.860;2023-04-01T06:03:12;99864.69;;;11.32;100.00
42385;BME280;28042;43.986;22.860;2023-04-01T06:05:42;99926.22;;;11.59;100.00
42385;BME280;28042;43.986;22.860;2023-04-01T06:08:13;99931.97;;;11.51;100.00
42385;BME280;28042;43.986;22.860;2023-04-01T06:11:01;99942.16;;;11.63;100.00
42385;BME280;28042;43.986;22.860;2023-04-01T06:21:54;99976.38;;;11.40;100.00
42385;BME280;28042;43.986;22.860;2023-04-01T06:32:13;99995.03;;;11.12;100.00
42385;BME280;28042;43.986;22.860;2023-04-01T06:34:48;100005.34;;;11.10;100.00
42385;BME280;28042;43.986;22.860;2023-04-01T06:37:28;100013.97;;;11.07;100.00
42385;BME280;28042;43.986;22.860;2023-04-01T06:40:22;100028.47;;;11.00;100.00
42385;BME280;28042;43.986;22.860;2023-04-01T06:54:09;99990.22;;;10.69;100.00
42385;BME280;28042;43.986;22.860;2023-04-01T06:56:37;100029.09;;;11.02;100.00
42385;BME280;28042;43.986;22.860;2023-04-01T06:59:12;100006.31;;;10.77;100.00
42385;BME280;28042;43.986;22.860;2023-04-01T07:04:20;100001.66;;;10.33;100.00
42385;BME280;28042;43.986;22.860;2023-04-01T07:09:25;100020.53;;;10.34;100.00
42385;BME280;28042;43.986;22.860;2023-04-01T07:11:53;100047.75;;;10.54;100.00
42385;BME280;28042;43.986;22.860;2023-04-01T07:14:25;100059.28;;;10.56;100.00
42385;BME280;28042;43.986;22.860;2023-04-01T07:17:00;100051.16;;;10.43;100.00
42385;BME280;28042;43.986;22.860;2023-04-01T07:19:42;100074.19;;;10.40;100.00
42385;BME280;28042;43.986;22.860;2023-04-01T07:22:40;100054.09;;;10.35;100.00
42385;BME280;28042;43.986;22.860;2023-04-01T07:25:21;100044.03;;;10.22;100.00
42385;BME280;28042;43.986;22.860;2023-04-01T07:27:48;100038.56;;;10.22;100.00
42385;BME280;28042;43.986;22.860;2023-04-01T07:30:19;100041.31;;;10.29;100.00
42385;BME280;28042;43.986;22.860;2023-04-01T08:00:16;99921.69;;;12.33;100.00
42385;BME280;28042;43.986;22.860;2023-04-01T08:08:46;99835.88;;;11.98;100.00
42385;BME280;28042;43.986;22.860;2023-04-01T08:17:03;99830.25;;;11.74;100.00
42385;BME280;28042;43.986;22.860;2023-04-01T08:19:53;99866.47;;;12.06;100.00
42385;BME280;28042;43.986;22.860;2023-04-01T08:22:38;99858.22;;;11.95;100.00
42385;BME280;28042;43.986;22.860;2023-04-01T08:25:06;99864.06;;;12.16;100.00
42385;BME280;28042;43.986;22.860;2023-04-01T08:27:39;99871.19;;;12.36;100.00
42385;BME280;28042;43.986;22.860;2023-04-01T08:30:22;99870.84;;;12.62;100.00
42385;BME280;28042;43.986;22.860;2023-04-01T08:38:36;99864.78;;;12.42;100.00
42385;BME280;28042;43.986;22.860;2023-04-01T08:47:04;99863.50;;;12.74;100.00
42385;BME280;28042;43.986;22.860;2023-04-01T08:52:22;99850.59;;;12.33;100.00
42385;BME280;28042;43.986;22.860;2023-04-01T08:55:04;99815.25;;;12.02;100.00
42385;BME280;28042;43.986;22.860;2023-04-01T09:00:32;99817.91;;;11.90;100.00
42385;BME280;28042;43.986;22.860;2023-04-01T09:03:22;99890.34;;;12.36;100.00
42385;BME280;28042;43.986;22.860;2023-04-01T09:08:36;99857.97;;;12.14;100.00
42385;BME280;28042;43.986;22.860;2023-04-01T09:11:30;99870.06;;;12.25;100.00
42385;BME280;28042;43.986;22.860;2023-04-01T09:48:43;99814.84;;;13.42;100.00
42385;BME280;28042;43.986;22.860;2023-04-01T10:18:08;99787.94;;;14.42;100.00
42385;BME280;28042;43.986;22.860;2023-04-01T10:21:03;99786.16;;;14.36;100.00
42385;BME280;28042;43.986;22.860;2023-04-01T10:26:43;99786.97;;;14.49;100.00
42385;BME280;28042;43.986;22.860;2023-04-01T10:40:36;99762.56;;;13.20;100.00
42385;BME280;28042;43.986;22.860;2023-04-01T10:58:28;99757.25;;;13.77;100.00
42385;BME280;28042;43.986;22.860;2023-04-01T11:13:15;99726.25;;;14.45;100.00
42385;BME280;28042;43.986;22.860;2023-04-01T11:29:43;99679.84;;;15.54;100.00
42385;BME280;28042;43.986;22.860;2023-04-01T11:38:02;99661.34;;;15.67;97.65
42385;BME280;28042;43.986;22.860;2023-04-01T11:40:37;99648.44;;;15.67;92.03
42385;BME280;28042;43.986;22.860;2023-04-01T11:43:28;99646.38;;;15.58;88.26
42385;BME280;28042;43.986;22.860;2023-04-01T11:46:17;99622.19;;;15.60;86.84
42385;BME280;28042;43.986;22.860;2023-04-01T11:52:01;99627.75;;;15.43;86.61
42385;BME280;28042;43.986;22.860;2023-04-01T12:09:00;99590.66;;;15.40;83.84
42385;BME280;28042;43.986;22.860;2023-04-01T12:11:48;99587.38;;;15.43;85.48
42385;BME280;28042;43.986;22.860;2023-04-01T12:22:41;99590.06;;;15.87;80.92
42385;BME280;28042;43.986;22.860;2023-04-01T12:31:07;99588.03;;;16.04;82.37
42385;BME280;28042;43.986;22.860;2023-04-01T12:36:48;99579.97;;;16.25;81.00
42385;BME280;28042;43.986;22.860;2023-04-01T12:42:48;99577.59;;;16.38;82.64
42385;BME280;28042;43.986;22.860;2023-04-01T12:48:46;99568.97;;;16.62;81.04
42385;BME280;28042;43.986;22.860;2023-04-01T12:56:46;99566.03;;;16.04;77.14
42385;BME280;28042;43.986;22.860;2023-04-01T12:59:46;99582.97;;;16.23;77.70
42385;BME280;28042;43.986;22.860;2023-04-01T13:13:00;99581.38;;;17.07;70.76
42385;BME280;28042;43.986;22.860;2023-04-01T13:18:26;99583.69;;;17.30;70.81
42385;BME280;28042;43.986;22.860;2023-04-01T13:24:02;99529.97;;;17.38;70.99
42385;BME280;28042;43.986;22.860;2023-04-01T13:26:42;99559.59;;;17.83;67.58
42385;BME280;28042;43.986;22.860;2023-04-01T13:29:30;99568.97;;;17.97;65.10
42385;BME280;28042;43.986;22.860;2023-04-01T13:32:28;99565.72;;;18.16;64.17
42385;BME280;28042;43.986;22.860;2023-04-01T13:35:19;99551.06;;;18.00;64.00
42385;BME280;28042;43.986;22.860;2023-04-01T13:37:57;99569.81;;;17.98;64.00
42385;BME280;28042;43.986;22.860;2023-04-01T13:48:30;99604.00;;;14.71;76.42
42385;BME280;28042;43.986;22.860;2023-04-01T13:58:57;99617.03;;;13.68;89.83
42385;BME280;28042;43.986;22.860;2023-04-01T14:01:41;99624.66;;;13.66;93.10
42385;BME280;28042;43.986;22.860;2023-04-01T14:07:04;99635.13;;;13.17;100.00
42385;BME280;28042;43.986;22.860;2023-04-01T14:15:19;99605.91;;;12.36;100.00
42385;BME280;28042;43.986;22.860;2023-04-01T14:25:55;99677.19;;;11.63;100.00
42385;BME280;28042;43.986;22.860;2023-04-01T14:37:48;99730.44;;;11.53;100.00
42385;BME280;28042;43.986;22.860;2023-04-01T14:48:32;99789.22;;;11.38;100.00
42385;BME280;28042;43.986;22.860;2023-04-01T14:51:17;99791.59;;;11.34;100.00
42385;BME280;28042;43.986;22.860;2023-04-01T14:56:43;99779.56;;;11.17;100.00
42385;BME280;28042;43.986;22.860;2023-04-01T15:04:41;99764.53;;;11.08;100.00
42385;BME280;28042;43.986;22.860;2023-04-01T15:07:27;99761.63;;;11.02;100.00
42385;BME280;28042;43.986;22.860;2023-04-01T15:12:56;99753.72;;;10.94;100.00
42385;BME280;28042;43.986;22.860;2023-04-01T15:23:46;99739.72;;;10.66;100.00
42385;BME280;28042;43.986;22.860;2023-04-01T15:32:02;99797.28;;;11.08;100.00
42385;BME280;28042;43.986;22.860;2023-04-01T15:40:29;99802.69;;;11.57;100.00
42385;BME280;28042;43.986;22.860;2023-04-01T15:45:51;99783.66;;;11.69;100.00
42385;BME280;28042;43.986;22.860;2023-04-01T15:56:13;99785.84;;;11.60;100.00
42385;BME280;28042;43.986;22.860;2023-04-01T16:01:45;99784.75;;;11.43;100.00
42385;BME280;28042;43.986;22.860;2023-04-01T16:04:46;99789.03;;;11.39;100.00
42385;BME280;28042;43.986;22.860;2023-04-01T16:10:29;99789.97;;;11.26;100.00
42385;BME280;28042;43.986;22.860;2023-04-01T16:13:21;99791.50;;;11.22;100.00
42385;BME280;28042;43.986;22.860;2023-04-01T16:18:57;99785.53;;;11.07;100.00
42385;BME280;28042;43.986;22.860;2023-04-01T16:21:45;99803.97;;;11.12;100.00
42385;BME280;28042;43.986;22.860;2023-04-01T16:24:30;99754.59;;;10.70;100.00
42385;BME280;28042;43.986;22.860;2023-04-01T16:27:04;99814.41;;;10.96;100.00
42385;BME280;28042;43.986;22.860;2023-04-01T16:29:43;99818.22;;;10.89;100.00
42385;BME280;28042;43.986;22.860;2023-04-01T16:37:59;99841.63;;;10.78;100.00
42385;BME280;28042;43.986;22.860;2023-04-01T16:43:10;99872.75;;;10.64;100.00
42385;BME280;28042;43.986;22.860;2023-04-01T16:57:20;99888.00;;;10.33;100.00
42385;BME280;28042;43.986;22.860;2023-04-01T16:59:54;99896.00;;;10.28;100.00
42385;BME280;28042;43.986;22.860;2023-04-01T17:02:35;99863.53;;;10.07;100.00
42385;BME280;28042;43.986;22.860;2023-04-01T17:05:10;99903.13;;;10.23;100.00
42385;BME280;28042;43.986;22.860;2023-04-01T17:07:53;99919.69;;;10.21;100.00
42385;BME280;28042;43.986;22.860;2023-04-01T17:16:17;99920.13;;;10.11;100.00
42385;BME280;28042;43.986;22.860;2023-04-01T17:43:43;99968.59;;;9.50;100.00
42385;BME280;28042;43.986;22.860;2023-04-01T17:46:31;99972.38;;;9.49;100.00
42385;BME280;28042;43.986;22.860;2023-04-01T17:49:23;99975.72;;;9.51;100.00
42385;BME280;28042;43.986;22.860;2023-04-01T18:00:28;100002.91;;;9.38;100.00
42385;BME280;28042;43.986;22.860;2023-04-01T18:16:40;100027.34;;;9.11;100.00
42385;BME280;28042;43.986;22.860;2023-04-01T18:19:16;100008.66;;;8.82;100.00
42385;BME280;28042;43.986;22.860;2023-04-01T18:22:03;100030.47;;;9.01;100.00
42385;BME280;28042;43.986;22.860;2023-04-01T18:24:43;100034.19;;;8.94;100.00
42385;BME280;28042;43.986;22.860;2023-04-01T18:27:30;100035.28;;;8.99;100.00
42385;BME280;28042;43.986;22.860;2023-04-01T18:30:21;100046.38;;;8.98;100.00
42385;BME280;28042;43.986;22.860;2023-04-01T18:33:01;99992.09;;;8.70;100.00
42385;BME280;28042;43.986;22.860;2023-04-01T18:35:52;100063.13;;;9.08;100.00
42385;BME280;28042;43.986;22.860;2023-04-01T18:38:33;100049.34;;;9.16;100.00
42385;BME280;28042;43.986;22.860;2023-04-01T18:44:16;100049.59;;;9.21;100.00
42385;BME280;28042;43.986;22.860;2023-04-01T18:49:20;100053.75;;;9.17;100.00
42385;BME280;28042;43.986;22.860;2023-04-01T18:51:51;100012.00;;;8.84;100.00
42385;BME280;28042;43.986;22.860;2023-04-01T18:54:45;100058.78;;;9.14;100.00
42385;BME280;28042;43.986;22.860;2023-04-01T18:57:16;100061.47;;;9.07;100.00
42385;BME280;28042;43.986;22.860;2023-04-01T19:00:02;100075.09;;;9.14;100.00
42385;BME280;28042;43.986;22.860;2023-04-01T19:02:48;100076.56;;;9.16;100.00
42385;BME280;28042;43.986;22.860;2023-04-01T19:05:33;100081.59;;;9.19;100.00
42385;BME280;28042;43.986;22.860;2023-04-01T19:08:25;100077.81;;;9.20;100.00
42385;BME280;28042;43.986;22.860;2023-04-01T19:17:00;100099.59;;;9.20;100.00
42385;BME280;28042;43.986;22.860;2023-04-01T19:19:42;100083.66;;;9.11;100.00
42385;BME280;28042;43.986;22.860;2023-04-01T19:22:50;100086.66;;;9.22;100.00
42385;BME280;28042;43.986;22.860;2023-04-01T19:35:56;100115.91;;;9.20;100.00
42385;BME280;28042;43.986;22.860;2023-04-01T19:38:53;100118.00;;;9.18;100.00
42385;BME280;28042;43.986;22.860;2023-04-01T19:46:53;100136.63;;;9.15;100.00
42385;BME280;28042;43.986;22.860;2023-04-01T19:52:27;100129.25;;;9.02;100.00
42385;BME280;28042;43.986;22.860;2023-04-01T20:02:39;100154.44;;;9.17;100.00
42385;BME280;28042;43.986;22.860;2023-04-01T20:07:55;100102.78;;;8.83;100.00
42385;BME280;28042;43.986;22.860;2023-04-01T20:16:06;100149.56;;;9.06;100.00
42385;BME280;28042;43.986;22.860;2023-04-01T20:26:40;100150.63;;;9.12;100.00
42385;BME280;28042;43.986;22.860;2023-04-01T20:29:36;100159.66;;;9.12;100.00
42385;BME280;28042;43.986;22.860;2023-04-01T20:35:02;100162.34;;;9.05;100.00
42385;BME280;28042;43.986;22.860;2023-04-01T20:40:41;100109.47;;;8.80;100.00
42385;BME280;28042;43.986;22.860;2023-04-01T20:45:56;100145.09;;;8.92;100.00
42385;BME280;28042;43.986;22.860;2023-04-01T20:48:36;100157.28;;;8.96;100.00
42385;BME280;28042;43.986;22.860;2023-04-01T20:51:06;100169.00;;;9.03;100.00
42385;BME280;28042;43.986;22.860;2023-04-01T20:56:35;100138.78;;;8.85;100.00
42385;BME280;28042;43.986;22.860;2023-04-01T20:59:50;100169.41;;;9.00;100.00
42385;BME280;28042;43.986;22.860;2023-04-01T21:08:06;100160.22;;;9.01;100.00
42385;BME280;28042;43.986;22.860;2023-04-01T21:10:44;100165.44;;;8.96;100.00
42385;BME280;28042;43.986;22.860;2023-04-01T21:13:58;100176.16;;;9.04;100.00
42385;BME280;28042;43.986;22.860;2023-04-01T21:16:33;100175.09;;;9.05;100.00
42385;BME280;28042;43.986;22.860;2023-04-01T21:19:12;100175.31;;;9.03;100.00
42385;BME280;28042;43.986;22.860;2023-04-01T21:22:08;100164.66;;;9.09;100.00
42385;BME280;28042;43.986;22.860;2023-04-01T21:33:32;100175.31;;;9.03;100.00
42385;BME280;28042;43.986;22.860;2023-04-01T21:46:59;100181.38;;;9.05;100.00
42385;BME280;28042;43.986;22.860;2023-04-01T22:00:14;100152.28;;;9.06;100.00
42385;BME280;28042;43.986;22.860;2023-04-01T22:10:36;100137.41;;;9.02;100.00
42385;BME280;28042;43.986;22.860;2023-04-01T22:13:15;100158.56;;;9.06;100.00
42385;BME280;28042;43.986;22.860;2023-04-01T22:18:34;100107.75;;;8.72;100.00
42385;BME280;28042;43.986;22.860;2023-04-01T22:21:25;100106.06;;;8.71;100.00
42385;BME280;28042;43.986;22.860;2023-04-01T22:29:24;100112.56;;;8.70;100.00
42385;BME280;28042;43.986;22.860;2023-04-01T22:32:00;100175.25;;;8.97;100.00
42385;BME280;28042;43.986;22.860;2023-04-01T22:34:44;100167.91;;;8.91;100.00
42385;BME280;28042;43.986;22.860;2023-04-01T22:37:20;100175.22;;;8.90;100.00
42385;BME280;28042;43.986;22.860;2023-04-01T22:39:53;100177.31;;;8.88;100.00
42385;BME280;28042;43.986;22.860;2023-04-01T22:42:44;100191.97;;;8.94;100.00
42385;BME280;28042;43.986;22.860;2023-04-01T22:50:25;100176.09;;;8.97;100.00
42385;BME280;28042;43.986;22.860;2023-04-01T22:53:08;100163.50;;;8.90;100.00
42385;BME280;28042;43.986;22.860;2023-04-01T22:55:40;100162.25;;;8.92;100.00
42385;BME280;28042;43.986;22.860;2023-04-01T22:58:26;100163.09;;;8.93;100.00
42385;BME280;28042;43.986;22.860;2023-04-01T23:01:18;100163.13;;;8.99;100.00